Startpagina
METAR-TAF:

METAR-TAF

Vliegvelden :

Gran Canaria, Spanje

Aeropuerto de Gran Canaria

breedte: 27-56N, lengte: 015-23W, hoogte: 23 m

Actueel weer

Dit bericht is 39 minuten geleden gemaakt, om 12:00 UTC
Wind 11 kt uit het noordoosten, variërend tussen het noordnoordoosten en het oosten
Temperatuur 21°C
Vochtigheid 64%
Druk 1022 hPa
Zicht 10 km of meer
Weinig wolken op 3000 ft

METAR: GCLP 271200Z 05011KT 020V080 9999 FEW030 21/14 Q1022 NOSIG

Tijdstip: 13:39 (12:39 UTC)

Verwachting

Dit bericht is 4 uur en het 39 minuten geleden gemaakt, om 08:00 UTC
Verwachting geldig van 27 om 09 UTC tot 28 om 09 UTC
Wind 7 kt uit het noordnoordwesten
Zicht 10 km of meer
Verspreide wolken op 3000 ft
Wijzigt naar
van 27 om 09 UTC tot 27 om 11 UTC
Wind 12 kt uit het noordnoordoosten

TAF: GCLP 270800Z 2709/2809 33007KT 9999 SCT030 TX21/2712Z TN15/2806Z BECMG 2709/2711 03012KT

Waarnemingen en weersverwachtingen van meer dan 4000 vliegvelden (METAR en TAF).

De beschikbare stations zijn de gele en rode punten op de kaart.

Ga met uw muis naar het station om de naam te zien.

Klik dan om waarnemingen en weersverwachtingen te zien.

kaart wijzigen: klik op de groene knoppen met een zwart kruis om in te zoomen, op de groene knop met een streepje om uit te zoomen of op de groene pijlen voor aangrenzende kaarten.


METAR-TAF: